createdAt,value
2022-12-15T00:01:49.579Z,98.87
2022-12-15T00:04:34.422Z,99.24
2022-12-15T00:07:19.363Z,99.41
2022-12-15T00:10:04.073Z,98.84
2022-12-15T00:12:48.974Z,99.28
2022-12-15T00:15:33.904Z,99.09
2022-12-15T00:18:23.834Z,99.25
2022-12-15T00:21:09.108Z,99.30
2022-12-15T00:23:54.414Z,99.64
2022-12-15T00:26:39.181Z,98.95
2022-12-15T00:29:23.927Z,99.41
2022-12-15T00:32:08.744Z,98.83
2022-12-15T00:34:53.677Z,99.68
2022-12-15T00:37:38.563Z,99.53
2022-12-15T00:40:06.885Z,99.99
2022-12-15T00:42:33.283Z,99.18
2022-12-15T00:44:59.837Z,99.28
2022-12-15T00:47:26.248Z,99.66
2022-12-15T00:50:11.273Z,99.65
2022-12-15T00:52:56.149Z,98.93
2022-12-15T00:55:40.779Z,99.39
2022-12-15T00:58:25.483Z,99.33
2022-12-15T01:01:10.128Z,99.86
2022-12-15T01:03:55.415Z,99.71
2022-12-15T01:06:40.707Z,99.35
2022-12-15T01:09:28.024Z,99.68
2022-12-15T01:12:13.373Z,99.51
2022-12-15T01:14:58.703Z,99.96
2022-12-15T01:17:43.570Z,99.66
2022-12-15T01:20:18.035Z,99.50
2022-12-15T01:22:53.234Z,100.00
2022-12-15T01:25:22.957Z,99.64
2022-12-15T01:27:50.242Z,99.68
2022-12-15T01:30:20.359Z,99.98
2022-12-15T01:32:46.938Z,99.77
2022-12-15T01:35:13.979Z,100.00
2022-12-15T01:37:40.696Z,100.00
2022-12-15T01:40:27.634Z,100.00
2022-12-15T01:42:54.056Z,100.00
2022-12-15T01:45:23.446Z,99.71
2022-12-15T01:47:56.711Z,99.97
2022-12-15T01:50:25.479Z,99.91
2022-12-15T01:52:54.039Z,100.00
2022-12-15T01:55:22.071Z,100.00
2022-12-15T01:57:49.721Z,100.00
2022-12-15T02:00:16.405Z,99.64
2022-12-15T02:02:42.992Z,99.60
2022-12-15T02:05:10.175Z,99.83
2022-12-15T02:07:36.677Z,99.50
2022-12-15T02:10:07.389Z,100.00
2022-12-15T02:12:51.864Z,99.61
2022-12-15T02:15:29.863Z,100.00
2022-12-15T02:18:08.370Z,99.98
2022-12-15T02:20:43.725Z,100.00
2022-12-15T02:23:26.204Z,100.00
2022-12-15T02:26:09.541Z,100.00
2022-12-15T02:28:57.736Z,100.00
2022-12-15T02:31:51.074Z,99.74
2022-12-15T02:34:49.943Z,100.00
2022-12-15T02:37:26.144Z,100.00
2022-12-15T02:39:52.624Z,99.56
2022-12-15T02:42:19.529Z,100.00
2022-12-15T02:45:13.999Z,100.00
2022-12-15T02:47:58.628Z,100.00
2022-12-15T02:50:58.617Z,100.00
2022-12-15T02:53:34.547Z,99.81
2022-12-15T02:56:15.097Z,100.00
2022-12-15T02:59:13.610Z,100.00
2022-12-15T03:01:58.394Z,100.00
2022-12-15T03:04:26.494Z,100.00
2022-12-15T03:07:01.232Z,100.00
2022-12-15T03:09:27.938Z,100.00
2022-12-15T03:11:54.308Z,100.00
2022-12-15T03:14:21.070Z,100.00
2022-12-15T03:16:47.654Z,100.00
2022-12-15T03:19:14.118Z,99.92
2022-12-15T03:21:40.467Z,100.00
2022-12-15T03:24:07.147Z,100.00
2022-12-15T03:26:33.532Z,100.00
2022-12-15T03:29:00.362Z,100.00
2022-12-15T03:31:26.845Z,100.00
2022-12-15T03:33:53.251Z,100.00
2022-12-15T03:36:19.611Z,100.00
2022-12-15T03:38:45.922Z,100.00
2022-12-15T03:41:12.304Z,100.00
2022-12-15T03:43:38.659Z,100.00
2022-12-15T03:46:05.245Z,100.00
2022-12-15T03:48:31.676Z,100.00
2022-12-15T03:50:59.083Z,100.00
2022-12-15T03:53:25.498Z,100.00
2022-12-15T03:55:51.931Z,100.00
2022-12-15T03:58:18.291Z,100.00
2022-12-15T04:00:44.610Z,100.00
2022-12-15T04:03:11.309Z,100.00
2022-12-15T04:05:38.503Z,100.00
2022-12-15T04:08:05.127Z,100.00
2022-12-15T04:10:35.116Z,100.00
2022-12-15T04:13:07.218Z,100.00
2022-12-15T04:15:34.934Z,100.00
2022-12-15T04:18:03.052Z,100.00
2022-12-15T04:20:30.025Z,100.00
2022-12-15T04:22:56.493Z,100.00
2022-12-15T04:25:43.925Z,100.00
2022-12-15T04:28:30.225Z,100.00
2022-12-15T04:31:24.651Z,100.00
2022-12-15T04:34:13.333Z,100.00
2022-12-15T04:37:01.541Z,100.00
2022-12-15T04:39:46.857Z,100.00
2022-12-15T04:42:32.062Z,100.00
2022-12-15T04:45:21.156Z,100.00
2022-12-15T04:48:06.575Z,100.00
2022-12-15T04:50:51.819Z,100.00
2022-12-15T04:53:37.592Z,100.00
2022-12-15T04:56:23.327Z,100.00
2022-12-15T04:59:08.191Z,100.00
2022-12-15T05:01:53.541Z,100.00
2022-12-15T05:04:38.814Z,100.00
2022-12-15T05:07:24.266Z,100.00
2022-12-15T05:10:14.659Z,100.00
2022-12-15T05:13:00.473Z,100.00
2022-12-15T05:15:45.552Z,100.00
2022-12-15T05:18:30.603Z,100.00
2022-12-15T05:21:17.432Z,100.00
2022-12-15T05:24:02.268Z,100.00
2022-12-15T05:26:52.378Z,100.00
2022-12-15T05:29:38.363Z,100.00
2022-12-15T05:32:04.807Z,100.00
2022-12-15T05:34:33.293Z,100.00
2022-12-15T05:37:01.429Z,100.00
2022-12-15T05:39:28.395Z,100.00
2022-12-15T05:41:56.769Z,100.00
2022-12-15T05:44:24.127Z,100.00
2022-12-15T05:46:50.700Z,100.00
2022-12-15T05:49:18.126Z,100.00
2022-12-15T05:51:46.420Z,100.00
2022-12-15T05:54:16.791Z,100.00
2022-12-15T05:56:43.163Z,100.00
2022-12-15T05:59:09.568Z,100.00
2022-12-15T06:01:36.912Z,100.00
2022-12-15T06:04:03.779Z,100.00
2022-12-15T06:06:30.326Z,100.00
2022-12-15T06:08:56.689Z,100.00
2022-12-15T06:11:23.131Z,100.00
2022-12-15T06:13:49.653Z,100.00
2022-12-15T06:16:17.794Z,100.00
2022-12-15T06:18:50.057Z,100.00
2022-12-15T06:21:19.248Z,100.00
2022-12-15T06:23:46.996Z,100.00
2022-12-15T06:26:17.290Z,100.00
2022-12-15T06:28:44.075Z,100.00
2022-12-15T06:31:12.015Z,100.00
2022-12-15T06:33:39.496Z,100.00
2022-12-15T06:36:09.413Z,100.00
2022-12-15T06:38:36.801Z,100.00
2022-12-15T06:41:05.706Z,100.00
2022-12-15T06:43:33.766Z,100.00
2022-12-15T06:46:02.066Z,100.00
2022-12-15T06:48:28.937Z,100.00
2022-12-15T06:50:55.358Z,100.00
2022-12-15T06:53:23.865Z,100.00
2022-12-15T06:55:50.886Z,100.00
2022-12-15T06:58:18.193Z,100.00
2022-12-15T07:00:46.285Z,100.00
2022-12-15T07:03:15.564Z,100.00
2022-12-15T07:05:43.786Z,100.00
2022-12-15T07:08:15.763Z,100.00
2022-12-15T07:10:44.093Z,100.00
2022-12-15T07:13:12.121Z,100.00
2022-12-15T07:15:39.466Z,100.00
2022-12-15T07:18:06.601Z,100.00
2022-12-15T07:20:33.585Z,100.00
2022-12-15T07:23:00.679Z,100.00
2022-12-15T07:25:27.046Z,100.00
2022-12-15T07:27:53.406Z,100.00
2022-12-15T07:30:19.810Z,100.00
2022-12-15T07:32:49.983Z,100.00
2022-12-15T07:35:16.933Z,100.00
2022-12-15T07:37:43.518Z,100.00
2022-12-15T07:40:10.177Z,100.00
2022-12-15T07:42:36.736Z,100.00
2022-12-15T07:45:05.116Z,100.00
2022-12-15T07:47:32.180Z,100.00
2022-12-15T07:49:58.709Z,100.00
2022-12-15T07:52:25.324Z,100.00
2022-12-15T07:54:51.935Z,100.00
2022-12-15T07:57:18.586Z,100.00
2022-12-15T07:59:45.398Z,100.00
2022-12-15T08:02:13.335Z,100.00
2022-12-15T08:04:40.895Z,100.00
2022-12-15T08:07:07.680Z,100.00
2022-12-15T08:09:34.080Z,100.00
2022-12-15T08:12:00.585Z,100.00
2022-12-15T08:14:28.696Z,100.00
2022-12-15T08:16:55.524Z,100.00
2022-12-15T08:19:22.040Z,100.00
2022-12-15T08:21:48.651Z,100.00
2022-12-15T08:24:15.851Z,100.00
2022-12-15T08:26:43.645Z,100.00
2022-12-15T08:32:01.692Z,100.00
2022-12-15T08:34:28.353Z,100.00
2022-12-15T08:36:55.609Z,100.00
2022-12-15T08:39:22.063Z,100.00
2022-12-15T08:41:49.386Z,100.00
2022-12-15T08:44:16.913Z,100.00
2022-12-15T08:46:43.506Z,100.00
2022-12-15T08:49:10.163Z,100.00
2022-12-15T08:51:36.783Z,100.00
2022-12-15T08:54:03.338Z,100.00
2022-12-15T08:56:30.194Z,100.00
2022-12-15T08:58:59.511Z,100.00
2022-12-15T09:01:27.879Z,100.00
2022-12-15T09:03:56.094Z,100.00
2022-12-15T09:06:26.361Z,100.00
2022-12-15T09:08:59.773Z,100.00
2022-12-15T09:11:27.744Z,100.00
2022-12-15T09:13:54.141Z,100.00
2022-12-15T09:16:21.650Z,100.00
2022-12-15T09:18:53.904Z,100.00
2022-12-15T09:21:26.058Z,100.00
2022-12-15T09:23:54.747Z,100.00
2022-12-15T09:26:23.381Z,100.00
2022-12-15T09:28:51.154Z,98.51
2022-12-15T09:31:21.729Z,96.48
2022-12-15T09:33:49.531Z,93.45
2022-12-15T09:36:16.009Z,90.49
2022-12-15T09:38:43.623Z,89.37
2022-12-15T09:41:12.957Z,86.03
2022-12-15T09:43:55.192Z,83.44
2022-12-15T09:46:39.954Z,82.44
2022-12-15T09:49:15.178Z,78.88
2022-12-15T09:51:47.973Z,78.66
2022-12-15T09:54:14.531Z,79.09
2022-12-15T09:56:50.048Z,79.89
2022-12-15T09:59:31.927Z,79.17
2022-12-15T10:02:30.800Z,78.39
2022-12-15T10:05:57.577Z,77.50
2022-12-15T10:08:22.403Z,78.43
2022-12-15T10:10:57.555Z,78.90
2022-12-15T10:13:50.365Z,78.32
2022-12-15T10:16:47.702Z,78.65
2022-12-15T10:19:41.820Z,75.08
2022-12-15T10:22:13.363Z,71.33
2022-12-15T10:28:19.818Z,75.58
2022-12-15T10:31:07.690Z,79.33
2022-12-15T10:33:37.610Z,80.62
2022-12-15T10:36:11.911Z,76.97
2022-12-15T10:38:45.357Z,73.27
2022-12-15T10:41:14.306Z,71.05
2022-12-15T10:43:44.020Z,68.95
2022-12-15T10:46:15.092Z,66.85
2022-12-15T10:51:44.023Z,65.15
2022-12-15T10:54:16.138Z,64.59
2022-12-15T10:56:57.429Z,65.55
2022-12-15T10:59:35.798Z,64.82
2022-12-15T11:02:23.452Z,67.25
2022-12-15T11:04:59.865Z,70.82
2022-12-15T11:07:33.615Z,70.54
2022-12-15T11:10:01.795Z,69.36
2022-12-15T11:12:50.489Z,70.18
2022-12-15T11:15:23.019Z,71.86
2022-12-15T11:17:58.542Z,70.93
2022-12-15T11:20:34.069Z,71.28
2022-12-15T11:23:13.153Z,71.20
2022-12-15T11:28:21.846Z,71.07
2022-12-15T11:30:56.999Z,73.61
2022-12-15T11:33:23.429Z,76.62
2022-12-15T11:35:58.879Z,77.74
2022-12-15T11:38:40.053Z,79.38
2022-12-15T11:41:41.419Z,79.17
2022-12-15T11:44:29.945Z,79.53
2022-12-15T11:47:26.406Z,78.67
2022-12-15T11:50:14.558Z,78.52
2022-12-15T11:52:49.186Z,74.21
2022-12-15T11:55:35.877Z,72.20
2022-12-15T11:58:17.505Z,65.61
2022-12-15T12:01:09.984Z,67.48
2022-12-15T12:03:48.479Z,71.86
2022-12-15T12:06:25.012Z,74.88
2022-12-15T12:09:12.649Z,76.56
2022-12-15T12:11:56.474Z,78.54
2022-12-15T12:14:42.202Z,80.48
2022-12-15T12:17:36.148Z,80.93
2022-12-15T12:20:13.468Z,81.46
2022-12-15T12:22:53.724Z,82.46
2022-12-15T12:25:22.525Z,82.70
2022-12-15T12:27:58.303Z,82.73
2022-12-15T12:30:28.487Z,82.56
2022-12-15T12:33:21.169Z,83.25
2022-12-15T12:35:55.187Z,83.03
2022-12-15T12:38:31.479Z,82.45
2022-12-15T12:41:16.167Z,83.56
2022-12-15T12:43:50.435Z,84.35
2022-12-15T12:46:28.119Z,84.62
2022-12-15T12:49:07.046Z,85.37
2022-12-15T12:51:36.820Z,85.78
2022-12-15T12:54:30.686Z,86.66
2022-12-15T12:56:57.058Z,87.19
2022-12-15T12:59:29.340Z,86.87
2022-12-15T13:02:22.004Z,87.05
2022-12-15T13:05:19.051Z,87.09
2022-12-15T13:07:54.596Z,86.65
2022-12-15T13:10:22.712Z,87.54
2022-12-15T13:12:54.014Z,87.06
2022-12-15T13:15:41.677Z,87.25
2022-12-15T13:18:16.020Z,87.31
2022-12-15T13:20:44.505Z,87.31
2022-12-15T13:23:19.822Z,87.48
2022-12-15T13:26:01.561Z,87.43
2022-12-15T13:28:43.577Z,88.22
2022-12-15T13:31:16.502Z,88.41
2022-12-15T13:33:47.779Z,89.21
2022-12-15T13:36:37.238Z,89.68
2022-12-15T13:39:11.114Z,90.10
2022-12-15T13:41:54.285Z,90.05
2022-12-15T13:44:32.121Z,89.98
2022-12-15T13:47:15.399Z,89.84
2022-12-15T13:50:03.183Z,89.64
2022-12-15T13:53:16.724Z,89.83
2022-12-15T13:55:35.791Z,89.96
2022-12-15T13:58:20.078Z,90.28
2022-12-15T14:00:55.464Z,90.57
2022-12-15T14:03:22.627Z,90.98
2022-12-15T14:05:53.143Z,91.11
2022-12-15T14:08:22.024Z,91.04
2022-12-15T14:10:53.040Z,91.52
2022-12-15T14:13:29.759Z,91.79
2022-12-15T14:16:04.548Z,92.12
2022-12-15T14:18:33.317Z,92.34
2022-12-15T14:21:01.940Z,92.43
2022-12-15T14:24:11.285Z,92.43
2022-12-15T14:26:32.024Z,92.62
2022-12-15T14:29:05.246Z,92.49
2022-12-15T14:31:32.459Z,92.71
2022-12-15T14:34:03.252Z,93.01
2022-12-15T14:36:31.566Z,93.13
2022-12-15T14:39:14.254Z,93.36
2022-12-15T14:41:45.524Z,93.44
2022-12-15T14:47:24.231Z,94.45
2022-12-15T14:49:51.321Z,94.22
2022-12-15T14:52:26.626Z,94.47
2022-12-15T14:54:57.847Z,94.62
2022-12-15T14:57:28.301Z,95.13
2022-12-15T14:59:55.782Z,95.36
2022-12-15T15:02:28.273Z,95.44
2022-12-15T15:03:04.490Z,65.53
2022-12-15T15:03:16.191Z,93.79
2022-12-15T15:04:56.517Z,95.90
2022-12-15T15:07:23.728Z,96.20
2022-12-15T15:09:51.308Z,96.33
2022-12-15T15:12:20.757Z,96.32
2022-12-15T15:14:52.077Z,96.23
2022-12-15T15:17:36.196Z,96.99
2022-12-15T15:20:17.646Z,97.06
2022-12-15T15:23:02.303Z,97.33
2022-12-15T15:25:41.126Z,97.51
2022-12-15T15:28:20.295Z,97.21
2022-12-15T15:30:57.408Z,97.72
2022-12-15T15:33:25.249Z,98.16
2022-12-15T15:35:54.874Z,98.56
2022-12-15T15:38:24.959Z,98.65
2022-12-15T15:41:00.078Z,99.06
2022-12-15T15:43:27.863Z,99.41
2022-12-15T15:46:05.628Z,99.18
2022-12-15T15:48:36.439Z,99.49
2022-12-15T15:51:04.613Z,99.58
2022-12-15T15:53:33.449Z,100.00
2022-12-15T15:56:00.740Z,99.88
2022-12-15T15:58:27.108Z,100.00
2022-12-15T16:00:53.504Z,100.00
2022-12-15T16:03:20.106Z,100.00
2022-12-15T16:05:46.758Z,100.00
2022-12-15T16:08:19.899Z,100.00
2022-12-15T16:10:48.272Z,100.00
2022-12-15T16:13:20.803Z,100.00
2022-12-15T16:15:50.581Z,100.00
2022-12-15T16:18:17.124Z,100.00
2022-12-15T16:20:46.490Z,100.00
2022-12-15T16:23:22.785Z,100.00
2022-12-15T16:25:53.936Z,100.00
2022-12-15T16:28:28.808Z,100.00
2022-12-15T16:30:58.242Z,100.00
2022-12-15T16:33:25.428Z,100.00
2022-12-15T16:35:52.116Z,100.00
2022-12-15T16:38:24.709Z,100.00
2022-12-15T16:40:51.826Z,100.00
2022-12-15T16:43:22.250Z,100.00
2022-12-15T16:45:50.798Z,100.00
2022-12-15T16:48:18.189Z,100.00
2022-12-15T16:50:53.518Z,100.00
2022-12-15T16:53:33.137Z,100.00
2022-12-15T16:56:02.984Z,100.00
2022-12-15T16:58:31.083Z,100.00
2022-12-15T17:00:58.450Z,100.00
2022-12-15T17:03:27.872Z,100.00
2022-12-15T17:05:56.755Z,100.00
2022-12-15T17:08:27.214Z,100.00
2022-12-15T17:10:53.845Z,100.00
2022-12-15T17:13:36.603Z,100.00
2022-12-15T17:16:05.781Z,100.00
2022-12-15T17:18:33.409Z,100.00
2022-12-15T17:21:30.828Z,100.00
2022-12-15T17:24:00.653Z,100.00
2022-12-15T17:26:32.738Z,100.00
2022-12-15T17:29:02.026Z,100.00
2022-12-15T17:31:34.906Z,100.00
2022-12-15T17:34:08.439Z,100.00
2022-12-15T17:36:34.901Z,100.00
2022-12-15T17:39:01.653Z,100.00
2022-12-15T17:41:58.078Z,100.00
2022-12-15T17:44:33.078Z,100.00
2022-12-15T17:47:00.443Z,100.00
2022-12-15T17:49:30.135Z,100.00
2022-12-15T17:52:05.317Z,100.00
2022-12-15T17:54:31.667Z,100.00
2022-12-15T17:56:58.592Z,100.00
2022-12-15T17:59:25.202Z,100.00
2022-12-15T18:01:52.100Z,100.00
2022-12-15T18:04:18.731Z,100.00
2022-12-15T18:06:45.278Z,100.00
2022-12-15T18:09:19.637Z,100.00
2022-12-15T18:11:46.891Z,100.00
2022-12-15T18:14:15.183Z,100.00
2022-12-15T18:16:42.518Z,100.00
2022-12-15T18:19:09.233Z,100.00
2022-12-15T18:21:35.851Z,100.00
2022-12-15T18:24:02.972Z,100.00
2022-12-15T18:26:31.317Z,100.00
2022-12-15T18:28:57.688Z,100.00
2022-12-15T18:31:30.294Z,100.00
2022-12-15T18:34:04.053Z,100.00
2022-12-15T18:36:31.285Z,100.00
2022-12-15T18:38:57.632Z,100.00
2022-12-15T18:41:24.066Z,100.00
2022-12-15T18:43:50.930Z,100.00
2022-12-15T18:46:20.236Z,100.00
2022-12-15T18:48:46.829Z,100.00
2022-12-15T18:51:19.310Z,100.00
2022-12-15T18:53:48.423Z,100.00
2022-12-15T18:56:18.072Z,100.00
2022-12-15T18:58:44.463Z,100.00
2022-12-15T19:01:10.971Z,100.00
2022-12-15T19:03:38.641Z,100.00
2022-12-15T19:06:26.160Z,100.00
2022-12-15T19:08:52.805Z,100.00
2022-12-15T19:11:31.060Z,100.00
2022-12-15T19:13:59.746Z,100.00
2022-12-15T19:16:26.273Z,100.00
2022-12-15T19:19:17.079Z,100.00
2022-12-15T19:22:02.516Z,100.00
2022-12-15T19:24:50.843Z,100.00
2022-12-15T19:27:23.462Z,100.00
2022-12-15T19:29:50.417Z,100.00
2022-12-15T19:32:16.962Z,100.00
2022-12-15T19:34:43.746Z,100.00
2022-12-15T19:37:16.447Z,100.00
2022-12-15T19:39:42.938Z,100.00
2022-12-15T19:42:18.825Z,100.00
2022-12-15T19:44:45.465Z,100.00
2022-12-15T19:47:15.117Z,100.00
2022-12-15T19:49:42.299Z,100.00
2022-12-15T19:52:17.042Z,100.00
2022-12-15T19:54:45.146Z,100.00
2022-12-15T19:57:13.856Z,100.00
2022-12-15T19:59:40.795Z,100.00
2022-12-15T20:02:18.897Z,100.00
2022-12-15T20:04:46.085Z,100.00
2022-12-15T20:07:27.045Z,100.00
2022-12-15T20:09:53.518Z,100.00
2022-12-15T20:12:20.355Z,100.00
2022-12-15T20:14:47.125Z,100.00
2022-12-15T20:17:13.501Z,100.00
2022-12-15T20:19:39.934Z,100.00
2022-12-15T20:22:13.666Z,100.00
2022-12-15T20:24:40.586Z,100.00
2022-12-15T20:27:13.405Z,100.00
2022-12-15T20:29:39.781Z,100.00
2022-12-15T20:32:14.704Z,100.00
2022-12-15T20:34:41.533Z,100.00
2022-12-15T20:37:28.376Z,100.00
2022-12-15T20:39:57.714Z,100.00
2022-12-15T20:42:24.659Z,100.00
2022-12-15T20:44:51.133Z,100.00
2022-12-15T20:47:21.278Z,100.00
2022-12-15T20:49:49.503Z,100.00
2022-12-15T20:52:22.645Z,100.00
2022-12-15T20:54:49.845Z,100.00
2022-12-15T20:57:16.649Z,100.00
2022-12-15T20:59:44.553Z,100.00
2022-12-15T21:02:22.843Z,100.00
2022-12-15T21:04:50.748Z,100.00
2022-12-15T21:07:17.695Z,100.00
2022-12-15T21:09:44.142Z,100.00
2022-12-15T21:12:30.771Z,100.00
2022-12-15T21:14:57.165Z,100.00
2022-12-15T21:17:25.723Z,100.00
2022-12-15T21:19:52.689Z,100.00
2022-12-15T21:22:27.062Z,100.00
2022-12-15T21:24:56.607Z,100.00
2022-12-15T21:27:23.214Z,100.00
2022-12-15T21:29:52.694Z,100.00
2022-12-15T21:32:36.091Z,100.00
2022-12-15T21:35:02.496Z,100.00
2022-12-15T21:37:30.296Z,100.00
2022-12-15T21:39:58.036Z,100.00
2022-12-15T21:42:24.572Z,100.00
2022-12-15T21:44:51.126Z,100.00
2022-12-15T21:47:25.121Z,100.00
2022-12-15T21:49:51.774Z,100.00
2022-12-15T21:52:19.637Z,100.00
2022-12-15T21:54:46.083Z,100.00
2022-12-15T21:57:13.024Z,100.00
2022-12-15T21:59:39.674Z,100.00
2022-12-15T22:02:32.508Z,100.00
2022-12-15T22:04:58.883Z,100.00
2022-12-15T22:07:25.259Z,100.00
2022-12-15T22:09:51.739Z,100.00
2022-12-15T22:12:22.478Z,100.00
2022-12-15T22:14:49.320Z,100.00
2022-12-15T22:17:22.675Z,100.00
2022-12-15T22:19:49.153Z,100.00
2022-12-15T22:22:16.518Z,99.97
2022-12-15T22:24:43.065Z,100.00
2022-12-15T22:27:20.842Z,100.00
2022-12-15T22:29:48.806Z,100.00
2022-12-15T22:32:18.162Z,100.00
2022-12-15T22:34:44.689Z,100.00
2022-12-15T22:37:11.129Z,100.00
2022-12-15T22:39:37.506Z,100.00
2022-12-15T22:42:04.984Z,100.00
2022-12-15T22:44:35.813Z,100.00
2022-12-15T22:47:03.373Z,100.00
2022-12-15T22:49:34.283Z,100.00
2022-12-15T22:52:00.778Z,100.00
2022-12-15T22:54:29.265Z,100.00
2022-12-15T22:57:00.623Z,100.00
2022-12-15T22:59:41.258Z,100.00
2022-12-15T23:02:09.141Z,100.00
2022-12-15T23:04:36.537Z,100.00
2022-12-15T23:07:06.535Z,100.00
2022-12-15T23:09:33.009Z,100.00
2022-12-15T23:11:59.380Z,100.00
2022-12-15T23:14:44.283Z,100.00
2022-12-15T23:17:12.594Z,100.00
2022-12-15T23:19:46.845Z,100.00
2022-12-15T23:22:14.178Z,100.00
2022-12-15T23:24:40.778Z,100.00
2022-12-15T23:27:11.437Z,100.00
2022-12-15T23:29:37.876Z,100.00
2022-12-15T23:32:04.472Z,100.00
2022-12-15T23:34:31.407Z,100.00
2022-12-15T23:36:57.838Z,100.00
2022-12-15T23:39:24.249Z,100.00
2022-12-15T23:41:50.617Z,100.00
2022-12-15T23:44:17.053Z,100.00
2022-12-15T23:46:43.584Z,100.00
2022-12-15T23:49:10.085Z,100.00
2022-12-15T23:51:36.437Z,100.00
2022-12-15T23:54:02.871Z,100.00
2022-12-15T23:56:29.417Z,100.00
2022-12-15T23:58:58.359Z,100.00
